createdAt,value
2023-05-19T00:00:30.998Z,7.59
2023-05-19T00:02:57.968Z,7.78
2023-05-19T00:05:24.915Z,7.69
2023-05-19T00:07:51.998Z,7.78
2023-05-19T00:10:18.771Z,7.82
2023-05-19T00:12:45.440Z,7.83
2023-05-19T00:15:12.550Z,7.93
2023-05-19T00:17:42.353Z,7.80
2023-05-19T00:20:09.232Z,7.86
2023-05-19T00:22:37.041Z,7.94
2023-05-19T00:25:04.064Z,8.09
2023-05-19T00:27:30.668Z,7.77
2023-05-19T00:29:57.181Z,7.83
2023-05-19T00:32:23.831Z,7.73
2023-05-19T00:34:50.426Z,7.78
2023-05-19T00:37:16.947Z,7.68
2023-05-19T00:39:43.491Z,7.61
2023-05-19T00:42:10.217Z,7.63
2023-05-19T00:44:40.563Z,7.64
2023-05-19T00:47:07.059Z,7.57
2023-05-19T00:49:33.676Z,7.45
2023-05-19T00:52:01.279Z,7.50
2023-05-19T00:54:28.422Z,7.45
2023-05-19T00:56:55.344Z,7.41
2023-05-19T00:59:21.846Z,7.42
2023-05-19T01:01:49.131Z,7.28
2023-05-19T01:04:20.064Z,7.29
2023-05-19T01:06:54.786Z,7.21
2023-05-19T01:09:22.610Z,7.10
2023-05-19T01:11:50.222Z,6.91
2023-05-19T01:14:16.819Z,6.89
2023-05-19T01:17:08.822Z,7.03
2023-05-19T01:20:02.205Z,7.18
2023-05-19T01:22:32.399Z,7.20
2023-05-19T01:25:27.311Z,7.10
2023-05-19T01:28:27.903Z,7.18
2023-05-19T01:30:55.576Z,7.27
2023-05-19T01:33:22.808Z,7.16
2023-05-19T01:35:49.368Z,7.39
2023-05-19T01:38:17.477Z,7.45
2023-05-19T01:40:44.068Z,7.41
2023-05-19T01:43:13.199Z,7.40
2023-05-19T01:45:39.800Z,7.47
2023-05-19T01:48:08.421Z,7.38
2023-05-19T01:50:36.421Z,7.25
2023-05-19T01:53:03.297Z,7.09
2023-05-19T01:55:29.802Z,7.13
2023-05-19T01:57:59.160Z,7.29
2023-05-19T02:00:31.875Z,7.57
2023-05-19T02:03:22.616Z,7.65
2023-05-19T02:06:11.962Z,7.47
2023-05-19T02:09:03.833Z,7.28
2023-05-19T02:12:01.146Z,7.23
2023-05-19T02:15:04.467Z,7.17
2023-05-19T02:17:33.129Z,7.11
2023-05-19T02:19:59.770Z,7.00
2023-05-19T02:22:26.288Z,7.08
2023-05-19T02:24:52.816Z,7.05
2023-05-19T02:27:19.367Z,7.04
2023-05-19T02:29:46.027Z,7.01
2023-05-19T02:32:12.665Z,7.00
2023-05-19T02:34:39.288Z,6.83
2023-05-19T02:37:07.564Z,6.88
2023-05-19T02:39:35.292Z,6.85
2023-05-19T02:42:01.903Z,6.80
2023-05-19T02:44:28.418Z,6.92
2023-05-19T02:46:55.077Z,6.90
2023-05-19T02:49:21.608Z,6.98
2023-05-19T02:51:48.141Z,6.90
2023-05-19T02:54:14.681Z,6.84
2023-05-19T02:56:41.190Z,6.98
2023-05-19T02:59:08.734Z,6.94
2023-05-19T03:01:35.284Z,6.88
2023-05-19T03:04:02.187Z,6.72
2023-05-19T03:06:29.391Z,6.67
2023-05-19T03:08:55.914Z,6.74
2023-05-19T03:11:23.281Z,6.84
2023-05-19T03:13:49.822Z,6.72
2023-05-19T03:16:16.382Z,6.75
2023-05-19T03:18:42.931Z,6.54
2023-05-19T03:21:09.718Z,6.69
2023-05-19T03:23:36.303Z,6.63
2023-05-19T03:26:03.055Z,6.50
2023-05-19T03:28:29.826Z,6.37
2023-05-19T03:30:56.341Z,6.35
2023-05-19T03:33:23.950Z,6.45
2023-05-19T03:35:50.621Z,6.68
2023-05-19T03:38:17.151Z,6.62
2023-05-19T03:40:45.021Z,6.59
2023-05-19T03:43:11.557Z,6.57
2023-05-19T03:45:38.139Z,6.48
2023-05-19T03:48:04.998Z,6.72
2023-05-19T03:50:31.745Z,6.64
2023-05-19T03:52:58.553Z,6.80
2023-05-19T03:55:25.713Z,6.85
2023-05-19T03:57:55.105Z,6.68
2023-05-19T04:00:21.617Z,6.77
2023-05-19T04:02:48.264Z,6.79
2023-05-19T04:05:14.913Z,6.77
2023-05-19T04:07:41.651Z,6.71
2023-05-19T04:10:08.314Z,6.85
2023-05-19T04:12:34.853Z,6.78
2023-05-19T04:15:01.410Z,6.73
2023-05-19T04:17:28.026Z,6.84
2023-05-19T04:19:54.622Z,6.93
2023-05-19T04:22:21.410Z,6.92
2023-05-19T04:24:48.671Z,6.85
2023-05-19T04:27:16.086Z,6.96
2023-05-19T04:29:42.608Z,6.91
2023-05-19T04:32:09.198Z,7.20
2023-05-19T04:34:35.838Z,7.36
2023-05-19T04:37:02.556Z,7.69
2023-05-19T04:39:29.198Z,7.94
2023-05-19T04:41:56.597Z,8.29
2023-05-19T04:44:23.152Z,8.56
2023-05-19T04:46:50.153Z,8.79
2023-05-19T04:49:19.171Z,9.12
2023-05-19T04:51:46.126Z,9.42
2023-05-19T04:54:12.644Z,9.47
2023-05-19T04:56:39.152Z,9.70
2023-05-19T04:59:06.837Z,9.79
2023-05-19T05:01:40.228Z,9.96
2023-05-19T05:04:07.097Z,9.98
2023-05-19T05:06:33.673Z,10.11
2023-05-19T05:09:00.390Z,10.13
2023-05-19T05:11:27.079Z,10.22
2023-05-19T05:13:53.758Z,10.44
2023-05-19T05:16:20.633Z,10.62
2023-05-19T05:18:47.323Z,10.89
2023-05-19T05:21:14.052Z,10.85
2023-05-19T05:23:40.730Z,10.91
2023-05-19T05:26:10.797Z,10.85
2023-05-19T05:28:37.305Z,11.14
2023-05-19T05:31:03.968Z,11.42
2023-05-19T05:33:30.581Z,11.36
2023-05-19T05:35:57.122Z,11.41
2023-05-19T05:38:23.864Z,11.46
2023-05-19T05:40:50.655Z,11.70
2023-05-19T05:43:17.170Z,11.64
2023-05-19T05:45:43.704Z,11.40
2023-05-19T05:48:10.807Z,11.43
2023-05-19T05:50:37.645Z,11.65
2023-05-19T05:53:04.333Z,11.62
2023-05-19T05:55:31.368Z,11.47
2023-05-19T05:57:58.675Z,11.59
2023-05-19T06:00:27.906Z,11.82
2023-05-19T06:02:54.592Z,11.98
2023-05-19T06:05:21.296Z,11.86
2023-05-19T06:07:47.845Z,11.94
2023-05-19T06:10:14.956Z,11.76
2023-05-19T06:12:43.203Z,11.88
2023-05-19T06:15:10.098Z,12.19
2023-05-19T06:17:36.692Z,12.61
2023-05-19T06:20:04.755Z,12.96
2023-05-19T06:22:31.332Z,12.90
2023-05-19T06:24:57.874Z,13.12
2023-05-19T06:27:24.412Z,13.02
2023-05-19T06:29:51.003Z,13.40
2023-05-19T06:32:17.537Z,13.06
2023-05-19T06:34:44.036Z,13.10
2023-05-19T06:37:11.144Z,13.10
2023-05-19T06:39:38.041Z,13.23
2023-05-19T06:42:04.851Z,13.04
2023-05-19T06:44:31.365Z,13.05
2023-05-19T06:46:58.043Z,13.48
2023-05-19T06:49:24.624Z,13.48
2023-05-19T06:51:51.143Z,12.97
2023-05-19T06:54:17.661Z,13.04
2023-05-19T06:56:45.009Z,13.05
2023-05-19T06:59:11.531Z,13.20
2023-05-19T07:01:38.751Z,13.61
2023-05-19T07:04:05.610Z,13.39
2023-05-19T07:06:32.247Z,13.47
2023-05-19T07:08:58.771Z,13.52
2023-05-19T07:11:26.466Z,13.96
2023-05-19T07:13:53.049Z,14.35
2023-05-19T07:16:19.586Z,13.86
2023-05-19T07:18:46.173Z,14.15
2023-05-19T07:21:13.012Z,14.31
2023-05-19T07:23:40.097Z,14.37
2023-05-19T07:26:12.979Z,14.12
2023-05-19T07:28:41.738Z,14.14
2023-05-19T07:31:13.525Z,14.37
2023-05-19T07:33:41.424Z,14.22
2023-05-19T07:36:11.084Z,14.34
2023-05-19T07:38:38.382Z,13.89
2023-05-19T07:41:06.536Z,14.39
2023-05-19T07:43:33.133Z,14.88
2023-05-19T07:46:00.709Z,14.88
2023-05-19T07:48:27.334Z,14.71
2023-05-19T07:50:54.079Z,14.57
2023-05-19T07:53:20.771Z,14.82
2023-05-19T07:55:47.277Z,15.07
2023-05-19T07:58:13.782Z,14.72
2023-05-19T08:00:42.958Z,15.36
2023-05-19T08:03:10.308Z,15.40
2023-05-19T08:05:36.986Z,15.48
2023-05-19T08:08:03.646Z,15.25
2023-05-19T08:10:30.464Z,15.13
2023-05-19T08:12:57.008Z,15.24
2023-05-19T08:15:23.568Z,15.20
2023-05-19T08:17:50.107Z,15.37
2023-05-19T08:20:16.682Z,15.55
2023-05-19T08:22:43.219Z,15.87
2023-05-19T08:25:10.396Z,16.26
2023-05-19T08:27:36.941Z,15.85
2023-05-19T08:30:03.504Z,16.31
2023-05-19T08:32:30.054Z,16.47
2023-05-19T08:34:56.596Z,16.26
2023-05-19T08:37:23.138Z,16.86
2023-05-19T08:39:50.111Z,16.84
2023-05-19T08:42:16.665Z,16.78
2023-05-19T08:44:43.996Z,17.23
2023-05-19T08:47:13.874Z,16.54
2023-05-19T08:49:46.481Z,17.07
2023-05-19T08:52:23.351Z,17.41
2023-05-19T08:54:53.169Z,17.35
2023-05-19T08:57:19.699Z,17.78
2023-05-19T08:59:46.252Z,18.11
2023-05-19T09:02:13.381Z,17.63
2023-05-19T09:04:40.176Z,17.64
2023-05-19T09:07:06.796Z,17.02
2023-05-19T09:09:33.329Z,16.95
2023-05-19T09:11:59.886Z,16.98
2023-05-19T09:14:26.402Z,16.92
2023-05-19T09:16:53.302Z,17.39
2023-05-19T09:19:21.277Z,17.50
2023-05-19T09:21:57.913Z,16.85
2023-05-19T09:24:25.351Z,16.99
2023-05-19T09:26:51.865Z,17.12
2023-05-19T09:29:18.456Z,16.87
2023-05-19T09:32:06.176Z,17.29
2023-05-19T09:34:32.746Z,17.21
2023-05-19T09:36:59.935Z,17.14
2023-05-19T09:39:26.653Z,17.49
2023-05-19T09:41:53.873Z,17.67
2023-05-19T09:44:20.241Z,17.40
2023-05-19T09:46:53.230Z,17.37
2023-05-19T09:49:24.060Z,17.16
2023-05-19T09:51:53.425Z,17.27
2023-05-19T09:54:20.561Z,17.43
2023-05-19T09:57:00.510Z,17.85
2023-05-19T09:59:28.461Z,17.95
2023-05-19T10:01:59.779Z,18.23
2023-05-19T10:04:27.701Z,17.01
2023-05-19T10:06:54.828Z,16.81
2023-05-19T10:09:28.108Z,16.54
2023-05-19T10:11:58.593Z,17.37
2023-05-19T10:14:26.160Z,17.88
2023-05-19T10:16:53.743Z,18.01
2023-05-19T10:19:24.289Z,18.08
2023-05-19T10:21:51.045Z,17.98
2023-05-19T10:24:17.720Z,18.45
2023-05-19T10:26:46.068Z,18.77
2023-05-19T10:29:12.934Z,18.37
2023-05-19T10:31:40.304Z,17.88
2023-05-19T10:34:34.742Z,18.46
2023-05-19T10:37:10.329Z,17.54
2023-05-19T10:39:36.847Z,17.12
2023-05-19T10:42:12.792Z,17.33
2023-05-19T10:44:51.391Z,18.15
2023-05-19T10:47:24.166Z,18.91
2023-05-19T10:49:53.783Z,18.06
2023-05-19T10:52:21.829Z,18.23
2023-05-19T10:54:48.540Z,17.98
2023-05-19T10:57:16.641Z,18.03
2023-05-19T10:59:44.689Z,18.02
2023-05-19T11:02:11.577Z,18.43
2023-05-19T11:04:51.849Z,19.31
2023-05-19T11:07:20.097Z,18.60
2023-05-19T11:09:52.869Z,18.28
2023-05-19T11:12:24.775Z,19.28
2023-05-19T11:14:55.007Z,19.92
2023-05-19T11:17:22.398Z,20.29
2023-05-19T11:19:56.313Z,19.89
2023-05-19T11:22:26.820Z,20.10
2023-05-19T11:24:56.584Z,20.95
2023-05-19T11:27:33.309Z,20.53
2023-05-19T11:30:06.581Z,20.33
2023-05-19T11:32:33.885Z,19.85
2023-05-19T11:35:01.131Z,18.70
2023-05-19T11:37:29.060Z,18.47
2023-05-19T11:39:55.744Z,18.50
2023-05-19T11:42:22.888Z,18.20
2023-05-19T11:44:49.429Z,18.58
2023-05-19T11:47:42.516Z,18.74
2023-05-19T11:50:06.273Z,19.32
2023-05-19T11:52:32.818Z,19.69
2023-05-19T11:55:02.351Z,19.13
2023-05-19T11:57:28.855Z,18.20
2023-05-19T11:59:56.775Z,17.46
2023-05-19T12:02:27.855Z,18.08
2023-05-19T12:04:54.707Z,18.90
2023-05-19T12:07:23.505Z,18.46
2023-05-19T12:09:50.912Z,18.48
2023-05-19T12:12:18.754Z,18.49
2023-05-19T12:14:50.350Z,18.92
2023-05-19T12:17:18.106Z,18.83
2023-05-19T12:19:44.761Z,19.68
2023-05-19T12:22:11.636Z,19.27
2023-05-19T12:24:38.340Z,18.47
2023-05-19T12:27:17.423Z,18.70
2023-05-19T12:29:44.011Z,19.30
2023-05-19T12:32:10.578Z,19.62
2023-05-19T12:34:38.199Z,18.64
2023-05-19T12:37:05.327Z,18.46
2023-05-19T12:39:32.436Z,18.11
2023-05-19T12:42:11.409Z,18.41
2023-05-19T12:44:39.359Z,19.12
2023-05-19T12:47:07.105Z,19.46
2023-05-19T12:49:34.130Z,19.27
2023-05-19T12:52:07.209Z,18.63
2023-05-19T12:54:37.164Z,18.56
2023-05-19T12:57:05.661Z,18.84
2023-05-19T12:59:54.882Z,19.93
2023-05-19T13:02:21.276Z,20.22
2023-05-19T13:04:48.422Z,20.08
2023-05-19T13:07:15.019Z,20.40
2023-05-19T13:09:42.198Z,20.39
2023-05-19T13:12:08.831Z,20.63
2023-05-19T13:14:35.389Z,19.92
2023-05-19T13:17:02.058Z,19.59
2023-05-19T13:19:29.096Z,19.12
2023-05-19T13:21:55.634Z,18.42
2023-05-19T13:24:22.300Z,19.00
2023-05-19T13:26:48.897Z,20.32
2023-05-19T13:29:15.422Z,20.46
2023-05-19T13:31:42.095Z,19.93
2023-05-19T13:34:08.711Z,20.41
2023-05-19T13:36:36.447Z,20.02
2023-05-19T13:39:03.500Z,19.67
2023-05-19T13:41:30.011Z,20.38
2023-05-19T13:43:58.430Z,20.94
2023-05-19T13:46:36.623Z,21.35
2023-05-19T13:49:10.654Z,20.87
2023-05-19T13:51:37.575Z,20.98
2023-05-19T13:54:05.062Z,20.93
2023-05-19T13:56:31.802Z,21.31
2023-05-19T13:58:58.355Z,21.38
2023-05-19T14:01:24.973Z,19.96
2023-05-19T14:03:52.436Z,20.72
2023-05-19T14:06:19.602Z,20.95
2023-05-19T14:08:46.114Z,21.46
2023-05-19T14:11:39.241Z,20.98
2023-05-19T14:14:05.854Z,20.01
2023-05-19T14:16:32.758Z,19.20
2023-05-19T14:18:59.417Z,19.19
2023-05-19T14:21:25.942Z,19.78
2023-05-19T14:23:52.494Z,21.03
2023-05-19T14:26:19.706Z,20.26
2023-05-19T14:28:46.216Z,19.80
2023-05-19T14:31:13.106Z,19.79
2023-05-19T14:33:40.693Z,19.11
2023-05-19T14:36:10.392Z,18.97
2023-05-19T14:38:36.947Z,18.94
2023-05-19T14:41:03.534Z,19.30
2023-05-19T14:43:30.076Z,19.71
2023-05-19T14:45:58.932Z,20.19
2023-05-19T14:48:25.440Z,20.32
2023-05-19T14:50:52.596Z,20.27
2023-05-19T14:53:19.133Z,20.24
2023-05-19T14:55:47.608Z,19.33
2023-05-19T14:58:27.611Z,19.24
2023-05-19T15:00:57.714Z,19.17
2023-05-19T15:03:24.899Z,19.46
2023-05-19T15:05:51.553Z,20.01
2023-05-19T15:08:18.090Z,19.74
2023-05-19T15:10:48.583Z,19.46
2023-05-19T15:13:15.096Z,19.97
2023-05-19T15:15:41.619Z,19.44
2023-05-19T15:18:08.213Z,19.05
2023-05-19T15:20:34.959Z,18.95
2023-05-19T15:23:01.742Z,18.64
2023-05-19T15:25:28.265Z,18.36
2023-05-19T15:27:55.044Z,18.15
2023-05-19T15:30:21.599Z,18.24
2023-05-19T15:32:48.148Z,18.13
2023-05-19T15:35:15.043Z,18.10
2023-05-19T15:37:41.866Z,18.66
2023-05-19T15:40:08.928Z,18.83
2023-05-19T15:42:35.724Z,18.53
2023-05-19T15:45:02.265Z,18.43
2023-05-19T15:47:28.806Z,17.98
2023-05-19T15:49:55.406Z,17.69
2023-05-19T15:52:21.965Z,17.93
2023-05-19T15:54:48.895Z,18.27
2023-05-19T15:57:15.811Z,18.24
2023-05-19T15:59:42.411Z,17.82
2023-05-19T16:02:09.019Z,17.90
2023-05-19T16:04:35.626Z,18.00
2023-05-19T16:07:02.127Z,17.37
2023-05-19T16:09:28.642Z,17.40
2023-05-19T16:11:55.329Z,17.30
2023-05-19T16:14:22.585Z,17.15
2023-05-19T16:16:49.260Z,17.12
2023-05-19T16:19:15.982Z,17.16
2023-05-19T16:21:42.535Z,17.20
2023-05-19T16:24:09.054Z,17.17
2023-05-19T16:26:35.705Z,17.15
2023-05-19T16:29:02.221Z,17.03
2023-05-19T16:31:28.861Z,17.33
2023-05-19T16:33:55.485Z,17.38
2023-05-19T16:36:22.845Z,17.59
2023-05-19T16:38:49.494Z,17.63
2023-05-19T16:41:16.111Z,17.26
2023-05-19T16:43:42.674Z,17.00
2023-05-19T16:46:12.034Z,17.04
2023-05-19T16:48:38.825Z,17.09
2023-05-19T16:51:05.353Z,17.05
2023-05-19T16:53:31.951Z,16.72
2023-05-19T16:56:01.382Z,16.63
2023-05-19T16:58:28.986Z,16.60
2023-05-19T17:00:57.828Z,16.54
2023-05-19T17:03:24.737Z,16.65
2023-05-19T17:05:52.378Z,16.67
2023-05-19T17:08:18.916Z,16.73
2023-05-19T17:10:45.442Z,16.66
2023-05-19T17:13:11.963Z,16.47
2023-05-19T17:15:38.989Z,16.52
2023-05-19T17:18:06.703Z,16.54
2023-05-19T17:20:33.471Z,16.68
2023-05-19T17:23:00.139Z,16.75
2023-05-19T17:25:26.653Z,16.64
2023-05-19T17:27:53.208Z,16.62
2023-05-19T17:30:19.752Z,16.41
2023-05-19T17:32:46.619Z,16.40
2023-05-19T17:35:13.469Z,16.43
2023-05-19T17:37:39.995Z,16.10
2023-05-19T17:40:07.123Z,16.15
2023-05-19T17:42:33.662Z,16.04
2023-05-19T17:45:00.635Z,16.00
2023-05-19T17:47:27.274Z,15.92
2023-05-19T17:49:54.122Z,15.88
2023-05-19T17:52:21.171Z,15.86
2023-05-19T17:54:47.880Z,15.75
2023-05-19T17:57:15.738Z,15.76
2023-05-19T17:59:42.413Z,15.66
2023-05-19T18:02:09.847Z,15.61
2023-05-19T18:04:36.691Z,15.68
2023-05-19T18:07:05.230Z,15.67
2023-05-19T18:09:31.795Z,15.46
2023-05-19T18:12:01.960Z,15.45
2023-05-19T18:14:28.507Z,15.44
2023-05-19T18:16:55.023Z,15.35
2023-05-19T18:19:21.672Z,15.30
2023-05-19T18:21:48.275Z,15.27
2023-05-19T18:24:14.784Z,15.24
2023-05-19T18:26:42.088Z,15.26
2023-05-19T18:29:12.045Z,15.21
2023-05-19T18:31:38.704Z,15.15
2023-05-19T18:34:05.347Z,15.09
2023-05-19T18:36:32.130Z,14.85
2023-05-19T18:38:59.161Z,14.69
2023-05-19T18:41:25.702Z,14.78
2023-05-19T18:43:52.239Z,14.59
2023-05-19T18:46:18.859Z,14.54
2023-05-19T18:48:45.531Z,14.59
2023-05-19T18:51:14.233Z,14.49
2023-05-19T18:53:40.816Z,14.54
2023-05-19T18:56:07.601Z,14.41
2023-05-19T18:58:34.156Z,14.35
2023-05-19T19:01:00.720Z,14.29
2023-05-19T19:03:28.578Z,14.33
2023-05-19T19:05:57.062Z,14.19
2023-05-19T19:08:23.644Z,14.16
2023-05-19T19:10:51.508Z,14.12
2023-05-19T19:13:18.257Z,14.10
2023-05-19T19:15:45.022Z,13.95
2023-05-19T19:18:11.930Z,13.64
2023-05-19T19:20:38.508Z,13.50
2023-05-19T19:23:06.560Z,13.47
2023-05-19T19:25:33.461Z,13.30
2023-05-19T19:28:00.002Z,13.25
2023-05-19T19:30:26.805Z,13.20
2023-05-19T19:32:54.739Z,13.12
2023-05-19T19:35:21.288Z,13.24
2023-05-19T19:37:47.913Z,13.04
2023-05-19T19:40:14.438Z,13.12
2023-05-19T19:42:41.002Z,12.89
2023-05-19T19:45:07.929Z,12.81
2023-05-19T19:47:34.496Z,12.76
2023-05-19T19:50:02.570Z,12.67
2023-05-19T19:52:29.356Z,12.53
2023-05-19T19:54:55.898Z,12.55
2023-05-19T19:57:22.432Z,12.53
2023-05-19T19:59:56.570Z,12.44
2023-05-19T20:02:23.119Z,12.42
2023-05-19T20:04:49.663Z,12.47
2023-05-19T20:07:19.564Z,12.45
2023-05-19T20:09:46.889Z,12.41
2023-05-19T20:12:13.425Z,12.47
2023-05-19T20:14:39.929Z,12.37
2023-05-19T20:17:06.541Z,12.46
2023-05-19T20:19:33.084Z,12.46
2023-05-19T20:21:59.654Z,12.41
2023-05-19T20:24:26.163Z,12.23
2023-05-19T20:26:52.674Z,12.18
2023-05-19T20:29:19.217Z,12.21
2023-05-19T20:31:46.589Z,12.30
2023-05-19T20:34:13.126Z,12.22
2023-05-19T20:36:39.677Z,12.32
2023-05-19T20:39:07.023Z,12.22
2023-05-19T20:41:33.533Z,12.26
2023-05-19T20:44:00.186Z,12.30
2023-05-19T20:46:26.821Z,12.37
2023-05-19T20:48:53.470Z,12.42
2023-05-19T20:51:21.664Z,12.48
2023-05-19T20:53:48.236Z,12.46
2023-05-19T20:56:14.797Z,12.39
2023-05-19T20:58:41.420Z,12.33
2023-05-19T21:01:08.008Z,12.40
2023-05-19T21:03:34.902Z,12.39
2023-05-19T21:06:01.424Z,12.28
2023-05-19T21:08:27.956Z,12.21
2023-05-19T21:10:54.514Z,12.06
2023-05-19T21:13:21.152Z,12.02
2023-05-19T21:15:47.716Z,12.14
2023-05-19T21:18:14.309Z,12.19
2023-05-19T21:20:40.882Z,12.06
2023-05-19T21:23:07.409Z,12.17
2023-05-19T21:25:33.965Z,12.16
2023-05-19T21:28:00.544Z,11.91
2023-05-19T21:30:27.114Z,12.02
2023-05-19T21:32:53.788Z,11.89
2023-05-19T21:35:20.349Z,11.74
2023-05-19T21:37:46.859Z,11.71
2023-05-19T21:40:13.455Z,11.88
2023-05-19T21:42:40.001Z,11.89
2023-05-19T21:45:07.266Z,11.90
2023-05-19T21:47:33.766Z,11.73
2023-05-19T21:50:00.577Z,11.74
2023-05-19T21:52:27.119Z,11.65
2023-05-19T21:54:53.664Z,11.75
2023-05-19T21:57:20.285Z,11.78
2023-05-19T21:59:46.867Z,11.86
2023-05-19T22:02:13.514Z,11.81
2023-05-19T22:04:41.750Z,11.71
2023-05-19T22:07:08.278Z,11.79
2023-05-19T22:09:34.815Z,11.81
2023-05-19T22:12:01.358Z,11.71
2023-05-19T22:14:27.890Z,11.86
2023-05-19T22:16:54.526Z,11.67
2023-05-19T22:19:21.387Z,11.69
2023-05-19T22:21:48.345Z,11.58
2023-05-19T22:24:16.069Z,11.64
2023-05-19T22:26:42.894Z,11.68
2023-05-19T22:29:14.898Z,11.59
2023-05-19T22:31:41.460Z,11.60
2023-05-19T22:34:08.095Z,11.61
2023-05-19T22:36:34.649Z,11.75
2023-05-19T22:39:01.175Z,11.66
2023-05-19T22:41:27.715Z,11.54
2023-05-19T22:43:54.236Z,11.48
2023-05-19T22:46:21.319Z,11.15
2023-05-19T22:48:47.851Z,11.09
2023-05-19T22:51:14.370Z,11.01
2023-05-19T22:53:42.509Z,11.04
2023-05-19T22:56:09.025Z,10.82
2023-05-19T22:58:35.530Z,10.68
2023-05-19T23:01:02.071Z,10.61
2023-05-19T23:03:28.642Z,10.69
2023-05-19T23:05:55.319Z,10.77
2023-05-19T23:08:21.845Z,10.80
2023-05-19T23:10:48.888Z,10.46
2023-05-19T23:13:15.490Z,10.37
2023-05-19T23:15:41.989Z,10.52
2023-05-19T23:18:08.686Z,10.59
2023-05-19T23:20:35.525Z,10.36
2023-05-19T23:23:02.066Z,10.38
2023-05-19T23:25:28.621Z,10.49
2023-05-19T23:27:55.216Z,10.36
2023-05-19T23:30:21.717Z,10.46
2023-05-19T23:32:48.263Z,10.48
2023-05-19T23:35:16.379Z,10.46
2023-05-19T23:37:42.915Z,10.38
2023-05-19T23:40:09.626Z,10.45
2023-05-19T23:42:36.684Z,10.43
2023-05-19T23:45:03.807Z,10.40
2023-05-19T23:47:30.363Z,10.28
2023-05-19T23:49:56.891Z,10.28
2023-05-19T23:52:23.428Z,10.21
2023-05-19T23:54:49.980Z,9.98
2023-05-19T23:57:16.489Z,10.00
2023-05-19T23:59:43.153Z,10.04
